Aviation Digital Data Service (ADDS)

Output produced by METARs form (0134 UTC 29 May 2022)
found at http://www.aviationweather.gov/metar/data/
 
LECO 290130Z AUTO 17004KT CAVOK 15/13 Q1010
TAF LECO 282000Z 2821/2921 VRB03KT CAVOK TX23/2915Z TN12/2905Z 
     BECMG 2910/2912 30010KT 
     BECMG 2918/2920 VRB03KT
       
LEAB 290100Z 16004KT CAVOK 18/07 Q1012 NOSIG
TAF LEAB 282300Z 2900/2924 26008KT CAVOK TX32/2915Z TN15/2905Z 
     PROB40 
     TEMPO 2913/2919 26015G25KT
       
TAF LERI 281700Z 2818/2918 19010KT CAVOK TX37/2914Z TN18/2906Z 
     BECMG 2818/2820 VRB02KT 
     BECMG 2913/2915 20015KT
       
LEAL 290130Z 27004KT CAVOK 18/12 Q1008 NOSIG
TAF LEAL 282300Z 2900/2924 VRB03KT CAVOK TX34/2912Z TN17/2906Z 
     BECMG 2903/2905 26010KT 
     BECMG 2909/2911 18015KT 
     BECMG 2912/2914 07012KT
       
LEAM 290130Z AUTO 26003KT 190V300 CAVOK 20/11 Q1010
TAF LEAM 282300Z 2900/2924 VRB03KT CAVOK TX30/2911Z TN19/2905Z 
     BECMG 2908/2910 23020KT 
     PROB40 
     TEMPO 2911/2923 23020G30KT
       
LEAS 290130Z AUTO 09006KT 060V120 9999 FEW007 15/14 Q1013
TAF AMD LEAS 282304Z 2823/2921 09009KT 9999 FEW015 TX21/2913Z TN13/2905Z 
     PROB40 
     TEMPO 2823/2903 BKN010 
     PROB30 
     TEMPO 2900/2907 3000 BR BCFG 
     TEMPO 2910/2918 08015G25KT
       
LEMD 290130Z 03002KT CAVOK 17/05 Q1010 NOSIG
TAF LEMD 282300Z 2900/3006 VRB05KT CAVOK TX32/2915Z TN14/2905Z 
     BECMG 2908/2910 24010KT 
     PROB40 
     TEMPO 2913/2919 24012G22KT
       
LEBL 290130Z 02006KT CAVOK 20/17 Q1008 NOSIG
TAF LEBL 282300Z 2900/2924 VRB04KT 9999 FEW050 TX24/2912Z TN17/2906Z 
     BECMG 2905/2907 13010KT 
     BECMG 2917/2919 05004KT
       
LEBB 290130Z AUTO 07002KT CAVOK 12/12 Q1013
TAF LEBB 282300Z 2900/2924 VRB03KT 9999 FEW030 TX24/2912Z TN11/2905Z 
     BECMG 2910/2912 05008KT 
     BECMG 2918/2920 VRB03KT
       
LEBG 290130Z AUTO 36004KT 300V040 8000 NCD 12/11 Q1014
TAF LEBG 282000Z 2821/2921 04010KT CAVOK TX27/2915Z TN11/2905Z 
     PROB30 
     TEMPO 2900/2907 BKN007 
     PROB40 
     TEMPO 2915/2921 VRB15G25KT TSRA SHRA SCT035CB
       
LEBA 290100Z AUTO 25007KT 220V290 CAVOK 19/11 Q1012
TAF LEBA 281400Z 2815/2915 25015KT CAVOK TX36/2815Z TN15/2905Z 
     PROB40 
     TEMPO 2815/2819 25015G25KT 
     PROB40 
     TEMPO 2904/2908 BKN010 
     BECMG 2905/2907 27004KT
       
LEVS 290100Z AUTO VRB01KT CAVOK 18/06 Q1010
TAF LEVS 282300Z 2900/2924 26006KT 9999 FEW045 TX31/2915Z TN17/2905Z 
     BECMG 2908/2910 24010KT
       
GCFV 290130Z AUTO 32005KT CAVOK 20/13 Q1016
TAF GCFV 282000Z 2821/2921 33004KT 9999 FEW030 TX24/2914Z TN18/2906Z 
     BECMG 2911/2913 09010KT
       
TAF LEGT 282300Z 2900/2924 26006KT 9999 FEW045 TX33/2915Z TN17/2905Z 
     BECMG 2908/2910 24010KT
       
LEGE 290100Z 04003KT CAVOK 14/12 Q1008
TAF LEGE 282300Z 2900/2924 VRB03KT 9999 FEW050 TX28/2914Z TN16/2906Z 
     BECMG 2908/2911 19010KT 
     PROB30 
     TEMPO 2912/2916 FEW040CB 
     BECMG 2920/2923 VRB03KT
       
GCLP 290130Z 01008KT 9999 BKN040 21/14 Q1017 NOSIG
TAF GCLP 282000Z 2821/2921 33006KT 9999 FEW030 TX23/2914Z TN17/2906Z 
     TEMPO 2821/2822 03010KT 
     BECMG 2908/2910 06010KT
       
LEGR 290130Z AUTO 20002KT CAVOK 16/06 Q1013
TAF LEGR 282300Z 2900/2924 VRB02KT CAVOK TX33/2915Z TN14/2906Z 
     BECMG 2911/2913 28012KT
       
GCHI 290130Z AUTO 34012KT 9999 FEW023 BKN035 20/15 Q1017
TAF GCHI 282000Z 2821/2921 34009KT 9999 SCT035 TX24/2914Z TN19/2906Z
       
LEIB 290130Z 25007KT CAVOK 20/17 Q1008 NOSIG
TAF LEIB 282000Z 2821/2921 24007KT CAVOK TX27/2912Z TN17/2906Z 
     TEMPO 2902/2907 VRB04KT 
     BECMG 2918/2920 VRB04KT
       
LEJR 290130Z AUTO 23008KT 9999 OVC020 19/15 Q1013
TAF LEJR 282000Z 2821/2921 23005KT CAVOK TX25/2914Z TN15/2905Z 
     TEMPO 2823/2907 BKN010
       
GCGM 290130Z AUTO VRB02KT 9999 FEW036 19/11 Q1017 RMK R09/VRB01KT ARP/00000KT
TAF GCGM 282000Z 2821/2921 VRB03KT 9999 SCT025 TX24/2914Z TN19/2906Z 
     BECMG 2909/2911 25013KT
       
GCLA 290130Z AUTO VRB02KT 9999 OVC042 20/13 Q1017
TAF GCLA 282000Z 2821/2921 20005KT 9999 SCT035 TX23/2914Z TN17/2906Z
       
GCRR 290130Z AUTO 36003KT 300V040 9999 OVC040 20/14 Q1016
TAF GCRR 282000Z 2821/2921 35005KT 9999 FEW030 TX26/2914Z TN18/2906Z 
     BECMG 2911/2913 12010KT
       
LELN 290130Z AUTO 28003KT 240V320 CAVOK 12/05 Q1013
TAF LELN 282000Z 2821/2921 VRB05KT CAVOK TX27/2915Z TN07/2905Z 
     BECMG 2909/2910 20008KT 
     TEMPO 2912/2921 FEW040CB 
     PROB40 
     TEMPO 2914/2921 VRB15G25KT TSRA SHRA SCT030CB 
     BECMG 2917/2918 02007KT
       
LEMG 290130Z 28006KT CAVOK 18/09 Q1011 NOSIG
TAF LEMG 282300Z 2900/2924 VRB03KT CAVOK TX30/2912Z TN16/2906Z 
     BECMG 2903/2905 28010KT 
     BECMG 2911/2913 22008KT
       
GEML 290130Z AUTO 35007KT CAVOK 20/16 Q1011
TAF GEML 282300Z 2900/2924 26012KT CAVOK TX26/2915Z TN19/2905Z
       
LEMH 290130Z AUTO 01005KT CAVOK 17/16 Q1009
TAF LEMH 282000Z 2821/2921 VRB04KT CAVOK TX25/2912Z TN17/2906Z 
     BECMG 2910/2912 08010KT
       
LEMO 290100Z 23010KT 200V260 9999 FEW010 BKN015 18/14 Q1013 NOSIG
TAF LEMO 282000Z 2821/2921 24009KT CAVOK TX27/2915Z TN14/2904Z 
     TEMPO 2901/2907 BKN010
       
LEPP 290130Z AUTO 31006KT 280V340 CAVOK 14/10 Q1012
TAF LEPP 282000Z 2821/2921 32009KT CAVOK TX26/2915Z TN12/2905Z
       
LERS 290130Z AUTO VRB01KT CAVOK 17/16 Q1008
TAF LERS 282000Z 2821/2921 06007KT CAVOK TX25/2912Z TN15/2906Z 
     BECMG 2908/2910 12010KT 
     BECMG 2919/2921 05006KT
       
LERT 290100Z 22009KT 9999 BKN021 19/16 Q1013 NOSIG
TAF AMD LERT 282105Z 2821/2921 24009KT CAVOK TX23/2912Z TN17/2905Z 
     TEMPO 2821/2907 BKN010
       
LESA 290130Z AUTO 15005KT CAVOK 14/09 Q1012
TAF LESA 282000Z 2821/2921 VRB05KT 9999 FEW040 TX30/2915Z TN10/2905Z 
     BECMG 2910/2911 22012KT 
     PROB30 
     TEMPO 2913/2920 23015G25KT 
     PROB40 
     TEMPO 2914/2920 FEW040CB
       
LESO 290130Z AUTO 18004KT 150V230 CAVOK 15/14 Q1013
TAF LESO 282300Z 2900/2924 VRB03KT CAVOK TX22/2913Z TN15/2905Z 
     BECMG 2910/2912 01010KT
       
LEXJ 290130Z AUTO VRB01KT CAVOK 13/12 Q1013
TAF LEXJ 282000Z 2821/2921 06010KT 9999 FEW020 TX23/2914Z TN13/2905Z 
     BECMG 2821/2823 VRB03KT 
     BECMG 2908/2910 07013KT 
     PROB40 
     TEMPO 2912/2918 08015G25KT
       
LEST 290130Z VRB02KT CAVOK 15/13 Q1011 NOSIG
TAF LEST 282300Z 2900/2924 VRB02KT CAVOK TX24/2914Z TN14/2905Z 
     BECMG 2908/2910 21010KT 
     PROB30 
     TEMPO 2914/2918 35007KT
       
TAF AMD LESU 281527Z 2815/2915 VRB03KT 9999 FEW060 TX28/2913Z TN09/2906Z 
     PROB30 
     TEMPO 2815/2816 FEW060TCU 
     TEMPO 2815/2818 33010KT 
     BECMG 2909/2911 20010KT 
     PROB40 
     TEMPO 2913/2915 3000 TSRA FEW040CB
       
LEZL 290130Z AUTO 23011KT 190V270 9999 OVC019 19/15 Q1013
TAF LEZL 282000Z 2821/2921 22009KT CAVOK TX27/2915Z TN16/2905Z 
     TEMPO 2901/2907 BKN010
       
LESB 290100Z AUTO 36003KT CAVOK 18/15 Q1009
TAF LEBZ 282000Z 2821/2921 25008KT CAVOK TX31/2915Z TN14/2905Z
       
GCXO 290130Z AUTO 29011KT 9999 BKN021 BKN028 15/11 Q1018
TAF GCXO 282000Z 2821/2921 30012KT 9999 SCT020 TX22/2914Z TN13/2906Z 
     PROB30 
     TEMPO 2821/2904 BKN012
       
GCTS 290130Z VRB02KT 9999 BKN045 20/15 Q1017 NOSIG
TAF GCTS 282000Z 2821/2921 06011KT 9999 BKN035 TX25/2914Z TN17/2906Z 
     BECMG 2902/2904 30006KT 
     BECMG 2904/2906 21010KT
       
LETO 290100Z 02004KT CAVOK 16/04 Q1010 NOSIG
TAF LETO 282300Z 2900/2924 VRB05KT CAVOK TX32/2915Z TN13/2905Z 
     TEMPO 2900/2902 04010KT 
     BECMG 2908/2910 24010KT
       
LEVC 290130Z 27003KT CAVOK 19/12 Q1007 NOSIG
TAF LEVC 282300Z 2900/2924 29005KT 9999 FEW040 TX28/2912Z TN17/2906Z 
     BECMG 2905/2906 07010KT 
     BECMG 2920/2923 VRB03KT
       
LEVD 290130Z AUTO 35003KT CAVOK 11/09 Q1013
TAF LEVD 282000Z 2821/2921 05010KT CAVOK TX29/2915Z TN08/2906Z 
     BECMG 2906/2907 VRB05KT 
     PROB40 
     TEMPO 2914/2921 VRB15G25KT TSRA SHRA FEW035CB
       
LEVX 290100Z 00000KT CAVOK 18/10 Q1010 NOSIG
TAF LEVX 282300Z 2900/2924 VRB03KT CAVOK TX22/2914Z TN14/2905Z 
     PROB40 
     TEMPO 2902/2910 3000 BR BKN005 
     PROB30 
     TEMPO 2903/2909 0800 FG VV001 
     TEMPO 2910/2919 27010KT
       
LEVT 290130Z 27002KT CAVOK 09/08 Q1014
TAF LEVT 282300Z 2900/2924 VRB03KT 9999 FEW020 TX24/2914Z TN09/2905Z 
     PROB30 
     TEMPO 2900/2906 3000 BR 
     BECMG 2908/2910 02010KT 
     BECMG 2919/2921 VRB04KT
       
LEZG 290130Z 28015KT CAVOK 19/11 Q1009
TAF AMD LEZG 290058Z 2900/2924 31018KT CAVOK TX33/2915Z TN17/2906Z 
     PROB30 
     TEMPO 2916/2918 VRB20G35KT TSRA FEW070CB